createdAt,value
2022-12-01T00:01:34.290Z,98842.88
2022-12-01T00:04:01.255Z,98845.09
2022-12-01T00:06:28.127Z,98838.81
2022-12-01T00:09:19.220Z,98848.72
2022-12-01T00:11:48.191Z,98841.66
2022-12-01T00:14:16.304Z,98840.56
2022-12-01T00:16:46.345Z,98845.16
2022-12-01T00:19:13.778Z,98842.06
2022-12-01T00:21:41.046Z,98844.16
2022-12-01T00:24:09.981Z,98851.75
2022-12-01T00:26:40.737Z,98854.47
2022-12-01T00:29:08.415Z,98843.75
2022-12-01T00:31:35.821Z,98843.97
2022-12-01T00:34:05.715Z,98851.03
2022-12-01T00:36:36.900Z,98843.75
2022-12-01T00:39:04.226Z,98854.47
2022-12-01T00:41:31.544Z,98847.72
2022-12-01T00:43:58.839Z,98852.94
2022-12-01T00:46:26.196Z,98851.06
2022-12-01T00:48:53.502Z,98850.03
2022-12-01T00:51:20.378Z,98849.91
2022-12-01T00:53:47.664Z,98853.78
2022-12-01T00:56:15.096Z,98849.25
2022-12-01T00:58:42.478Z,98851.75
2022-12-01T01:01:09.842Z,98848.19
2022-12-01T01:03:37.100Z,98845.41
2022-12-01T01:06:10.588Z,98844.16
2022-12-01T01:08:37.989Z,98845.38
2022-12-01T01:11:07.386Z,98855.19
2022-12-01T01:13:34.959Z,98854.63
2022-12-01T01:16:06.476Z,98848.28
2022-12-01T01:18:34.221Z,98849.81
2022-12-01T01:21:08.585Z,98853.09
2022-12-01T01:23:38.538Z,98856.88
2022-12-01T01:26:18.995Z,98859.69
2022-12-01T01:28:47.065Z,98859.66
2022-12-01T01:31:21.728Z,98863.00
2022-12-01T01:33:50.127Z,98865.22
2022-12-01T01:36:18.341Z,98864.44
2022-12-01T01:38:46.049Z,98860.81
2022-12-01T01:41:13.589Z,98860.19
2022-12-01T01:44:04.210Z,98855.97
2022-12-01T01:46:34.172Z,98852.81
2022-12-01T01:49:11.495Z,98856.66
2022-12-01T01:51:44.541Z,98862.75
2022-12-01T01:54:35.659Z,98864.16
2022-12-01T01:57:05.751Z,98866.38
2022-12-01T01:59:40.685Z,98868.69
2022-12-01T02:02:10.603Z,98866.03
2022-12-01T02:04:42.274Z,98862.75
2022-12-01T02:07:09.875Z,98860.94
2022-12-01T02:09:37.148Z,98864.63
2022-12-01T02:12:28.223Z,98862.28
2022-12-01T02:15:04.926Z,98868.78
2022-12-01T02:17:59.890Z,98864.97
2022-12-01T02:20:38.497Z,98858.28
2022-12-01T02:24:01.216Z,98859.72
2022-12-01T02:26:56.997Z,98856.69
2022-12-01T02:29:53.897Z,98854.34
2022-12-01T02:32:47.806Z,98853.53
2022-12-01T02:35:48.512Z,98851.13
2022-12-01T02:38:40.994Z,98854.44
2022-12-01T02:41:13.118Z,98846.09
2022-12-01T02:43:52.015Z,98853.31
2022-12-01T02:46:28.176Z,98858.56
2022-12-01T02:49:02.126Z,98851.63
2022-12-01T02:51:32.358Z,98855.09
2022-12-01T02:54:01.951Z,98847.34
2022-12-01T02:56:29.547Z,98847.97
2022-12-01T02:58:56.845Z,98853.75
2022-12-01T03:02:12.656Z,98857.59
2022-12-01T03:05:06.056Z,98849.34
2022-12-01T03:07:47.915Z,98851.03
2022-12-01T03:10:20.368Z,98849.84
2022-12-01T03:12:56.393Z,98849.09
2022-12-01T03:15:50.999Z,98844.78
2022-12-01T03:18:59.982Z,98839.94
2022-12-01T03:21:36.339Z,98842.03
2022-12-01T03:24:11.676Z,98844.94
2022-12-01T03:26:42.180Z,98839.94
2022-12-01T03:29:15.918Z,98837.78
2022-12-01T03:31:50.936Z,98833.13
2022-12-01T03:34:40.813Z,98840.91
2022-12-01T03:37:19.543Z,98837.44
2022-12-01T03:39:49.924Z,98836.72
2022-12-01T03:42:58.252Z,98836.81
2022-12-01T03:45:34.243Z,98836.31
2022-12-01T03:48:01.390Z,98824.31
2022-12-01T03:50:49.435Z,98823.19
2022-12-01T03:53:24.681Z,98833.69
2022-12-01T03:55:58.038Z,98837.81
2022-12-01T03:58:36.103Z,98841.00
2022-12-01T04:01:04.658Z,98839.19
2022-12-01T04:03:31.630Z,98839.00
2022-12-01T04:05:59.003Z,98837.06
2022-12-01T04:08:26.074Z,98843.88
2022-12-01T04:10:53.031Z,98831.44
2022-12-01T04:13:23.315Z,98828.44
2022-12-01T04:15:54.627Z,98830.63
2022-12-01T04:18:22.057Z,98840.41
2022-12-01T04:20:50.467Z,98830.50
2022-12-01T04:23:36.367Z,98834.31
2022-12-01T04:26:05.310Z,98835.66
2022-12-01T04:28:32.761Z,98840.78
2022-12-01T04:30:59.738Z,98843.69
2022-12-01T04:33:26.636Z,98833.34
2022-12-01T04:35:59.262Z,98828.03
2022-12-01T04:38:30.509Z,98836.78
2022-12-01T04:40:58.060Z,98830.31
2022-12-01T04:43:25.023Z,98832.78
2022-12-01T04:45:52.352Z,98833.34
2022-12-01T04:48:19.604Z,98832.78
2022-12-01T04:50:49.508Z,98837.75
2022-12-01T04:53:16.386Z,98831.13
2022-12-01T04:55:43.285Z,98831.22
2022-12-01T04:58:10.605Z,98842.69
2022-12-01T05:00:38.212Z,98837.75
2022-12-01T05:03:06.931Z,98842.88
2022-12-01T05:05:35.833Z,98837.34
2022-12-01T05:08:02.840Z,98839.16
2022-12-01T05:10:29.963Z,98843.00
2022-12-01T05:12:58.248Z,98841.09
2022-12-01T05:15:25.630Z,98845.50
2022-12-01T05:17:52.940Z,98846.97
2022-12-01T05:20:42.331Z,98855.41
2022-12-01T05:23:13.675Z,98853.44
2022-12-01T05:25:43.989Z,98847.44
2022-12-01T05:28:11.266Z,98847.09
2022-12-01T05:30:38.557Z,98846.84
2022-12-01T05:33:05.844Z,98850.97
2022-12-01T05:35:36.045Z,98855.59
2022-12-01T05:38:07.820Z,98855.41
2022-12-01T05:40:35.993Z,98859.44
2022-12-01T05:43:03.673Z,98860.59
2022-12-01T05:45:31.710Z,98851.72
2022-12-01T05:48:01.007Z,98845.34
2022-12-01T05:50:30.279Z,98843.88
2022-12-01T05:52:57.676Z,98846.06
2022-12-01T05:55:25.131Z,98843.44
2022-12-01T05:57:52.454Z,98849.34
2022-12-01T06:00:22.917Z,98846.34
2022-12-01T06:02:53.085Z,98852.44
2022-12-01T06:05:20.008Z,98856.38
2022-12-01T06:07:47.648Z,98856.69
2022-12-01T06:10:14.736Z,98862.00
2022-12-01T06:12:41.995Z,98860.66
2022-12-01T06:15:10.956Z,98858.84
2022-12-01T06:17:40.383Z,98850.88
2022-12-01T06:20:08.837Z,98848.72
2022-12-01T06:22:35.755Z,98854.97
2022-12-01T06:25:03.274Z,98852.47
2022-12-01T06:27:30.167Z,98858.22
2022-12-01T06:29:57.508Z,98861.34
2022-12-01T06:32:24.828Z,98859.81
2022-12-01T06:34:52.120Z,98856.47
2022-12-01T06:37:19.450Z,98857.84
2022-12-01T06:39:46.968Z,98862.97
2022-12-01T06:42:14.470Z,98866.34
2022-12-01T06:44:41.385Z,98868.38
2022-12-01T06:47:08.785Z,98871.84
2022-12-01T06:49:36.172Z,98867.31
2022-12-01T06:52:03.604Z,98864.06
2022-12-01T06:54:31.148Z,98867.91
2022-12-01T06:56:58.595Z,98872.72
2022-12-01T06:59:26.303Z,98872.78
2022-12-01T07:01:53.888Z,98873.88
2022-12-01T07:04:21.350Z,98867.38
2022-12-01T07:06:48.641Z,98872.47
2022-12-01T07:09:16.005Z,98873.16
2022-12-01T07:11:42.941Z,98869.94
2022-12-01T07:14:21.820Z,98875.66
2022-12-01T07:16:51.653Z,98880.59
2022-12-01T07:19:18.859Z,98876.66
2022-12-01T07:21:49.338Z,98879.97
2022-12-01T07:24:16.338Z,98876.50
2022-12-01T07:26:43.660Z,98874.41
2022-12-01T07:29:11.585Z,98871.31
2022-12-01T07:31:39.062Z,98884.19
2022-12-01T07:34:06.724Z,98875.41
2022-12-01T07:36:33.882Z,98885.31
2022-12-01T07:39:05.227Z,98886.72
2022-12-01T07:41:32.133Z,98883.16
2022-12-01T07:43:59.525Z,98883.25
2022-12-01T07:46:27.867Z,98889.56
2022-12-01T07:48:56.187Z,98888.84
2022-12-01T07:51:25.032Z,98886.53
2022-12-01T07:53:54.273Z,98888.50
2022-12-01T07:56:22.486Z,98880.44
2022-12-01T07:58:49.893Z,98890.56
2022-12-01T08:01:20.887Z,98886.91
2022-12-01T08:03:49.952Z,98890.13
2022-12-01T08:06:18.361Z,98895.91
2022-12-01T08:08:45.374Z,98893.31
2022-12-01T08:11:25.112Z,98885.41
2022-12-01T08:13:53.353Z,98895.31
2022-12-01T08:16:23.081Z,98906.50
2022-12-01T08:18:50.729Z,98899.94
2022-12-01T08:21:20.878Z,98902.19
2022-12-01T08:23:48.381Z,98907.22
2022-12-01T08:26:19.340Z,98908.31
2022-12-01T08:28:46.999Z,98905.53
2022-12-01T08:31:22.179Z,98902.97
2022-12-01T08:33:50.725Z,98912.03
2022-12-01T08:36:19.881Z,98914.34
2022-12-01T08:38:50.250Z,98910.25
2022-12-01T08:41:18.025Z,98912.03
2022-12-01T08:44:01.473Z,98904.38
2022-12-01T08:46:34.288Z,98906.00
2022-12-01T08:49:03.745Z,98896.63
2022-12-01T08:51:31.380Z,98910.00
2022-12-01T08:53:59.767Z,98902.69
2022-12-01T08:56:32.560Z,98911.78
2022-12-01T08:59:00.266Z,98914.97
2022-12-01T09:01:28.232Z,98907.09
2022-12-01T09:04:08.206Z,98915.94
2022-12-01T09:06:42.928Z,98921.69
2022-12-01T09:09:16.617Z,98918.56
2022-12-01T09:11:44.312Z,98916.63
2022-12-01T09:14:13.107Z,98921.66
2022-12-01T09:16:41.273Z,98928.00
2022-12-01T09:19:09.017Z,98918.41
2022-12-01T09:21:39.497Z,98921.28
2022-12-01T09:24:08.002Z,98920.03
2022-12-01T09:26:37.509Z,98919.06
2022-12-01T09:29:09.738Z,98918.41
2022-12-01T09:31:37.649Z,98917.03
2022-12-01T09:34:13.943Z,98910.69
2022-12-01T09:36:41.283Z,98909.16
2022-12-01T09:39:12.471Z,98919.44
2022-12-01T09:41:48.872Z,98912.47
2022-12-01T09:44:39.796Z,98914.78
2022-12-01T09:47:37.097Z,98904.19
2022-12-01T09:50:18.831Z,98903.56
2022-12-01T09:52:59.785Z,98900.53
2022-12-01T09:55:27.319Z,98896.19
2022-12-01T09:57:57.622Z,98894.91
2022-12-01T10:00:28.513Z,98895.78
2022-12-01T10:03:10.325Z,98890.50
2022-12-01T10:06:25.313Z,98892.81
2022-12-01T10:08:46.408Z,98880.41
2022-12-01T10:11:32.283Z,98878.88
2022-12-01T10:14:00.290Z,98883.91
2022-12-01T10:16:35.741Z,98881.63
2022-12-01T10:19:15.146Z,98876.00
2022-12-01T10:22:01.216Z,98879.78
2022-12-01T10:25:06.065Z,98875.31
2022-12-01T10:27:47.902Z,98867.50
2022-12-01T10:30:19.026Z,98863.34
2022-12-01T10:33:17.352Z,98870.63
2022-12-01T10:35:44.326Z,98867.53
2022-12-01T10:38:31.614Z,98866.25
2022-12-01T10:41:00.922Z,98859.13
2022-12-01T10:43:45.335Z,98859.00
2022-12-01T10:46:42.082Z,98864.84
2022-12-01T10:49:16.182Z,98858.28
2022-12-01T10:51:58.129Z,98862.28
2022-12-01T10:54:37.026Z,98860.44
2022-12-01T10:57:06.443Z,98851.22
2022-12-01T10:59:41.123Z,98863.94
2022-12-01T11:02:18.222Z,98853.63
2022-12-01T11:04:53.664Z,98851.13
2022-12-01T11:07:30.273Z,98847.56
2022-12-01T11:10:24.030Z,98843.94
2022-12-01T11:12:59.564Z,98838.84
2022-12-01T11:15:32.027Z,98832.66
2022-12-01T11:18:05.635Z,98825.09
2022-12-01T11:20:39.475Z,98825.16
2022-12-01T11:23:27.007Z,98819.31
2022-12-01T11:26:25.610Z,98804.56
2022-12-01T11:29:01.043Z,98803.59
2022-12-01T11:31:44.961Z,98802.19
2022-12-01T11:34:27.195Z,98812.13
2022-12-01T11:37:06.784Z,98804.53
2022-12-01T11:39:38.179Z,98793.53
2022-12-01T11:42:20.075Z,98805.34
2022-12-01T11:45:19.042Z,98812.94
2022-12-01T11:48:21.143Z,98811.16
2022-12-01T11:51:01.598Z,98810.47
2022-12-01T11:53:41.301Z,98805.50
2022-12-01T11:56:31.985Z,98807.66
2022-12-01T11:59:09.768Z,98800.09
2022-12-01T12:01:55.301Z,98800.44
2022-12-01T12:05:04.201Z,98802.22
2022-12-01T12:07:44.957Z,98786.47
2022-12-01T12:10:44.735Z,98789.19
2022-12-01T12:13:27.030Z,98791.69
2022-12-01T12:16:48.385Z,98796.78
2022-12-01T12:23:34.560Z,98792.31
2022-12-01T12:26:30.768Z,98785.84
2022-12-01T12:29:40.571Z,98789.31
2022-12-01T12:32:48.932Z,98783.94
2022-12-01T12:35:40.241Z,98785.03
2022-12-01T12:38:34.913Z,98780.50
2022-12-01T12:42:07.508Z,98781.00
2022-12-01T12:45:02.727Z,98775.94
2022-12-01T12:47:43.936Z,98774.44
2022-12-01T12:50:30.811Z,98764.75
2022-12-01T12:53:05.311Z,98773.03
2022-12-01T12:55:51.360Z,98779.91
2022-12-01T12:58:34.424Z,98777.06
2022-12-01T13:01:17.785Z,98770.56
2022-12-01T13:03:58.536Z,98783.34
2022-12-01T13:06:34.923Z,98781.84
2022-12-01T13:09:24.406Z,98793.22
2022-12-01T13:12:01.925Z,98781.72
2022-12-01T13:14:41.694Z,98782.41
2022-12-01T13:17:25.951Z,98774.69
2022-12-01T13:19:52.827Z,98782.72
2022-12-01T13:22:28.382Z,98780.72
2022-12-01T13:24:55.728Z,98772.75
2022-12-01T13:27:26.198Z,98774.84
2022-12-01T13:29:56.154Z,98779.63
2022-12-01T13:32:36.896Z,98769.72
2022-12-01T13:35:33.397Z,98766.00
2022-12-01T13:38:30.202Z,98768.31
2022-12-01T13:41:24.408Z,98778.28
2022-12-01T13:44:07.894Z,98775.34
2022-12-01T13:46:43.900Z,98773.56
2022-12-01T13:49:44.017Z,98769.72
2022-12-01T13:52:23.272Z,98767.38
2022-12-01T13:55:08.554Z,98766.28
2022-12-01T13:57:42.339Z,98760.75
2022-12-01T14:00:24.825Z,98768.38
2022-12-01T14:03:17.044Z,98774.38
2022-12-01T14:06:09.510Z,98772.88
2022-12-01T14:08:46.192Z,98772.47
2022-12-01T14:11:24.930Z,98764.34
2022-12-01T14:14:10.490Z,98756.63
2022-12-01T14:16:58.668Z,98756.72
2022-12-01T14:19:34.585Z,98768.31
2022-12-01T14:22:03.186Z,98772.03
2022-12-01T14:24:52.851Z,98769.97
2022-12-01T14:27:39.405Z,98765.16
2022-12-01T14:30:46.623Z,98767.78
2022-12-01T14:34:00.295Z,98766.25
2022-12-01T14:36:37.822Z,98766.97
2022-12-01T14:39:24.833Z,98764.19
2022-12-01T14:42:00.960Z,98765.16
2022-12-01T14:44:42.797Z,98765.03
2022-12-01T14:47:33.701Z,98761.44
2022-12-01T14:50:12.070Z,98758.53
2022-12-01T14:52:43.798Z,98753.69
2022-12-01T14:55:37.525Z,98760.47
2022-12-01T14:58:20.422Z,98752.47
2022-12-01T15:01:38.634Z,98744.88
2022-12-01T15:04:06.974Z,98757.28
2022-12-01T15:06:37.884Z,98753.69
2022-12-01T15:12:07.781Z,98766.47
2022-12-01T15:14:49.536Z,98762.16
2022-12-01T15:17:34.412Z,98769.72
2022-12-01T15:20:01.783Z,98765.56
2022-12-01T15:22:31.691Z,98767.66
2022-12-01T15:25:14.369Z,98761.84
2022-12-01T15:27:43.868Z,98760.63
2022-12-01T15:30:15.163Z,98757.56
2022-12-01T15:32:45.937Z,98754.53
2022-12-01T15:35:22.983Z,98751.50
2022-12-01T15:37:52.803Z,98755.94
2022-12-01T15:43:25.010Z,98759.53
2022-12-01T15:46:01.339Z,98761.44
2022-12-01T15:48:35.178Z,98757.72
2022-12-01T15:51:16.336Z,98765.31
2022-12-01T15:54:03.170Z,98753.97
2022-12-01T15:56:38.310Z,98755.38
2022-12-01T15:59:14.032Z,98765.88
2022-12-01T16:01:43.678Z,98760.50
2022-12-01T16:04:32.057Z,98755.66
2022-12-01T16:07:11.016Z,98761.03
2022-12-01T16:10:10.125Z,98765.69
2022-12-01T16:12:37.430Z,98764.59
2022-12-01T16:15:14.740Z,98763.66
2022-12-01T16:17:51.427Z,98750.69
2022-12-01T16:20:31.754Z,98753.16
2022-12-01T16:23:02.380Z,98756.19
2022-12-01T16:25:39.099Z,98771.91
2022-12-01T16:28:07.780Z,98765.28
2022-12-01T16:30:39.815Z,98764.34
2022-12-01T16:33:25.508Z,98768.66
2022-12-01T16:35:53.300Z,98766.09
2022-12-01T16:38:23.582Z,98767.72
2022-12-01T16:41:01.811Z,98771.34
2022-12-01T16:43:29.803Z,98774.16
2022-12-01T16:46:03.580Z,98769.72
2022-12-01T16:48:31.536Z,98759.78
2022-12-01T16:51:03.905Z,98757.72
2022-12-01T16:53:30.857Z,98755.66
2022-12-01T16:56:03.267Z,98756.47
2022-12-01T16:58:30.938Z,98767.50
2022-12-01T17:00:58.752Z,98763.38
2022-12-01T17:03:29.012Z,98764.47
2022-12-01T17:05:56.358Z,98766.16
2022-12-01T17:08:24.123Z,98759.22
2022-12-01T17:10:52.279Z,98759.50
2022-12-01T17:13:23.375Z,98757.88
2022-12-01T17:15:53.567Z,98758.97
2022-12-01T17:18:25.655Z,98770.13
2022-12-01T17:21:01.355Z,98763.09
2022-12-01T17:23:29.054Z,98769.44
2022-12-01T17:25:56.529Z,98769.84
2022-12-01T17:28:23.873Z,98772.47
2022-12-01T17:30:51.326Z,98771.75
2022-12-01T17:33:18.808Z,98774.53
2022-12-01T17:35:46.283Z,98771.94
2022-12-01T17:38:13.590Z,98773.44
2022-12-01T17:40:40.900Z,98776.06
2022-12-01T17:43:08.750Z,98771.78
2022-12-01T17:45:42.037Z,98762.94
2022-12-01T17:48:09.524Z,98759.78
2022-12-01T17:50:38.115Z,98764.47
2022-12-01T17:53:07.407Z,98763.41
2022-12-01T17:55:34.694Z,98759.91
2022-12-01T17:58:03.672Z,98760.75
2022-12-01T18:00:31.501Z,98766.13
2022-12-01T18:02:58.937Z,98771.34
2022-12-01T18:05:26.499Z,98770.81
2022-12-01T18:07:54.369Z,98776.59
2022-12-01T18:10:21.978Z,98770.13
2022-12-01T18:12:49.443Z,98769.19
2022-12-01T18:15:18.149Z,98779.22
2022-12-01T18:17:45.704Z,98776.59
2022-12-01T18:20:13.570Z,98771.22
2022-12-01T18:22:40.947Z,98771.53
2022-12-01T18:25:08.307Z,98768.75
2022-12-01T18:27:35.702Z,98769.97
2022-12-01T18:30:03.708Z,98765.00
2022-12-01T18:32:31.134Z,98769.97
2022-12-01T18:34:58.504Z,98768.06
2022-12-01T18:37:25.925Z,98755.66
2022-12-01T18:39:56.423Z,98750.53
2022-12-01T18:42:24.404Z,98751.50
2022-12-01T18:44:52.026Z,98748.19
2022-12-01T18:47:19.579Z,98750.94
2022-12-01T18:49:46.998Z,98752.34
2022-12-01T18:52:14.355Z,98756.19
2022-12-01T18:54:41.726Z,98743.78
2022-12-01T18:57:09.177Z,98744.59
2022-12-01T18:59:39.233Z,98744.88
2022-12-01T19:02:09.015Z,98728.16
2022-12-01T19:04:36.521Z,98737.41
2022-12-01T19:07:04.086Z,98729.94
2022-12-01T19:09:31.478Z,98726.78
2022-12-01T19:12:00.168Z,98733.41
2022-12-01T19:14:28.870Z,98736.31
2022-12-01T19:16:56.828Z,98737.69
2022-12-01T19:19:24.769Z,98734.13
2022-12-01T19:21:53.963Z,98734.94
2022-12-01T19:24:21.541Z,98734.25
2022-12-01T19:26:48.991Z,98744.88
2022-12-01T19:29:16.512Z,98744.72
2022-12-01T19:31:43.906Z,98742.09
2022-12-01T19:34:11.319Z,98745.97
2022-12-01T19:36:38.634Z,98742.09
2022-12-01T19:39:07.715Z,98740.56
2022-12-01T19:41:38.407Z,98737.69
2022-12-01T19:44:05.992Z,98737.69
2022-12-01T19:46:34.011Z,98732.97
2022-12-01T19:49:02.587Z,98724.16
2022-12-01T19:51:35.437Z,98727.34
2022-12-01T19:54:10.088Z,98740.75
2022-12-01T19:56:37.642Z,98737.00
2022-12-01T19:59:07.909Z,98747.34
2022-12-01T20:01:35.338Z,98745.28
2022-12-01T20:04:02.688Z,98748.59
2022-12-01T20:06:32.580Z,98752.06
2022-12-01T20:09:03.919Z,98744.34
2022-12-01T20:11:32.836Z,98738.66
2022-12-01T20:14:00.401Z,98737.97
2022-12-01T20:16:28.767Z,98735.63
2022-12-01T20:18:56.463Z,98730.25
2022-12-01T20:21:42.297Z,98739.91
2022-12-01T20:24:14.314Z,98738.50
2022-12-01T20:26:46.069Z,98739.22
2022-12-01T20:29:17.924Z,98733.25
2022-12-01T20:31:45.549Z,98731.22
2022-12-01T20:34:20.883Z,98740.84
2022-12-01T20:36:48.697Z,98736.59
2022-12-01T20:39:16.320Z,98750.94
2022-12-01T20:41:44.290Z,98742.66
2022-12-01T20:44:15.128Z,98744.72
2022-12-01T20:46:45.695Z,98748.44
2022-12-01T20:49:14.632Z,98750.53
2022-12-01T20:51:42.117Z,98746.41
2022-12-01T20:54:30.216Z,98746.97
2022-12-01T20:57:00.786Z,98740.19
2022-12-01T20:59:28.902Z,98744.59
2022-12-01T21:01:56.332Z,98743.75
2022-12-01T21:04:23.927Z,98743.91
2022-12-01T21:06:55.689Z,98737.56
2022-12-01T21:09:22.699Z,98727.59
2022-12-01T21:12:09.682Z,98734.94
2022-12-01T21:14:48.973Z,98722.78
2022-12-01T21:17:23.517Z,98721.66
2022-12-01T21:20:09.717Z,98724.16
2022-12-01T21:22:37.526Z,98729.53
2022-12-01T21:25:18.643Z,98725.97
2022-12-01T21:27:47.815Z,98728.31
2022-12-01T21:30:21.952Z,98724.16
2022-12-01T21:32:49.956Z,98720.28
2022-12-01T21:35:20.141Z,98710.63
2022-12-01T21:37:58.971Z,98710.63
2022-12-01T21:40:26.957Z,98720.97
2022-12-01T21:42:54.410Z,98723.59
2022-12-01T21:45:32.034Z,98733.41
2022-12-01T21:48:14.210Z,98733.00
2022-12-01T21:50:41.228Z,98734.91
2022-12-01T21:53:17.709Z,98730.78
2022-12-01T21:55:47.610Z,98725.81
2022-12-01T21:58:28.009Z,98721.94
2022-12-01T22:00:57.800Z,98717.81
2022-12-01T22:03:33.229Z,98716.03
2022-12-01T22:06:31.137Z,98713.25
2022-12-01T22:09:02.859Z,98717.66
2022-12-01T22:11:31.383Z,98707.03
2022-12-01T22:14:29.632Z,98705.94
2022-12-01T22:17:05.987Z,98719.63
2022-12-01T22:19:42.289Z,98711.03
2022-12-01T22:22:09.555Z,98705.38
2022-12-01T22:24:43.810Z,98708.41
2022-12-01T22:27:30.312Z,98699.72
2022-12-01T22:30:21.326Z,98706.47
2022-12-01T22:32:53.078Z,98698.47
2022-12-01T22:35:39.149Z,98699.31
2022-12-01T22:38:06.413Z,98700.28
2022-12-01T22:40:51.700Z,98688.25
2022-12-01T22:43:28.982Z,98691.31
2022-12-01T22:46:10.572Z,98691.16
2022-12-01T22:48:44.937Z,98699.56
2022-12-01T22:51:30.444Z,98693.63
2022-12-01T22:54:24.658Z,98690.75
2022-12-01T22:57:13.750Z,98691.28
2022-12-01T22:59:44.746Z,98690.31
2022-12-01T23:02:21.106Z,98689.50
2022-12-01T23:04:53.551Z,98685.75
2022-12-01T23:07:34.485Z,98688.25
2022-12-01T23:10:22.257Z,98684.97
2022-12-01T23:12:52.735Z,98675.56
2022-12-01T23:15:30.325Z,98679.56
2022-12-01T23:18:20.346Z,98681.91
2022-12-01T23:20:53.686Z,98680.53
2022-12-01T23:23:31.457Z,98685.63
2022-12-01T23:26:01.588Z,98681.91
2022-12-01T23:28:30.760Z,98677.34
2022-12-01T23:30:59.594Z,98675.28
2022-12-01T23:33:30.341Z,98678.03
2022-12-01T23:36:14.390Z,98679.97
2022-12-01T23:38:49.521Z,98672.53
2022-12-01T23:41:36.344Z,98673.88
2022-12-01T23:44:45.404Z,98676.94
2022-12-01T23:47:22.225Z,98671.41
2022-12-01T23:49:57.730Z,98667.84
2022-12-01T23:52:34.221Z,98667.69
2022-12-01T23:55:02.236Z,98662.44
2022-12-01T23:57:30.798Z,98674.03
